sensor_id;sensor_type;location;lat;lon;timestamp;P1;durP1;ratioP1;P2;durP2;ratioP2
9208;SDS011;4639;48.862;9.188;2024-01-10T00:01:34;106.27;;;98.93;;
9208;SDS011;4639;48.862;9.188;2024-01-10T00:03:59;104.77;;;97.37;;
9208;SDS011;4639;48.862;9.188;2024-01-10T00:06:25;103.47;;;96.17;;
9208;SDS011;4639;48.862;9.188;2024-01-10T00:08:51;108.50;;;101.07;;
9208;SDS011;4639;48.862;9.188;2024-01-10T00:11:16;101.77;;;94.87;;
9208;SDS011;4639;48.862;9.188;2024-01-10T00:13:42;106.20;;;99.00;;
9208;SDS011;4639;48.862;9.188;2024-01-10T00:16:08;102.23;;;95.20;;
9208;SDS011;4639;48.862;9.188;2024-01-10T00:18:34;97.40;;;90.57;;
9208;SDS011;4639;48.862;9.188;2024-01-10T00:20:59;101.03;;;94.20;;
9208;SDS011;4639;48.862;9.188;2024-01-10T00:23:25;100.80;;;94.10;;
9208;SDS011;4639;48.862;9.188;2024-01-10T00:25:51;100.93;;;94.13;;
9208;SDS011;4639;48.862;9.188;2024-01-10T00:28:16;107.33;;;99.77;;
9208;SDS011;4639;48.862;9.188;2024-01-10T00:30:43;105.97;;;98.70;;
9208;SDS011;4639;48.862;9.188;2024-01-10T00:33:09;109.40;;;101.73;;
9208;SDS011;4639;48.862;9.188;2024-01-10T00:35:36;98.10;;;91.37;;
9208;SDS011;4639;48.862;9.188;2024-01-10T00:38:02;104.80;;;97.80;;
9208;SDS011;4639;48.862;9.188;2024-01-10T00:40:27;104.97;;;97.93;;
9208;SDS011;4639;48.862;9.188;2024-01-10T00:42:53;111.00;;;103.17;;
9208;SDS011;4639;48.862;9.188;2024-01-10T00:45:18;107.27;;;99.93;;
9208;SDS011;4639;48.862;9.188;2024-01-10T00:47:44;103.40;;;96.33;;
9208;SDS011;4639;48.862;9.188;2024-01-10T00:50:10;110.13;;;102.40;;
9208;SDS011;4639;48.862;9.188;2024-01-10T00:52:35;110.80;;;103.17;;
9208;SDS011;4639;48.862;9.188;2024-01-10T00:55:01;101.27;;;94.47;;
9208;SDS011;4639;48.862;9.188;2024-01-10T00:57:27;102.90;;;95.67;;
9208;SDS011;4639;48.862;9.188;2024-01-10T00:59:52;105.00;;;97.67;;
9208;SDS011;4639;48.862;9.188;2024-01-10T01:02:18;95.50;;;89.13;;
9208;SDS011;4639;48.862;9.188;2024-01-10T01:04:43;79.27;;;73.60;;
9208;SDS011;4639;48.862;9.188;2024-01-10T01:07:09;80.40;;;74.60;;
9208;SDS011;4639;48.862;9.188;2024-01-10T01:09:34;93.43;;;87.07;;
9208;SDS011;4639;48.862;9.188;2024-01-10T01:12:00;94.50;;;87.43;;
9208;SDS011;4639;48.862;9.188;2024-01-10T01:14:26;85.93;;;79.70;;
9208;SDS011;4639;48.862;9.188;2024-01-10T01:16:51;111.57;;;103.93;;
9208;SDS011;4639;48.862;9.188;2024-01-10T01:19:17;92.90;;;86.20;;
9208;SDS011;4639;48.862;9.188;2024-01-10T01:21:43;106.97;;;99.60;;
9208;SDS011;4639;48.862;9.188;2024-01-10T01:24:09;96.60;;;90.03;;
9208;SDS011;4639;48.862;9.188;2024-01-10T01:26:34;102.67;;;95.60;;
9208;SDS011;4639;48.862;9.188;2024-01-10T01:29:00;112.80;;;104.73;;
9208;SDS011;4639;48.862;9.188;2024-01-10T01:31:26;106.43;;;98.97;;
9208;SDS011;4639;48.862;9.188;2024-01-10T01:33:51;114.83;;;106.90;;
9208;SDS011;4639;48.862;9.188;2024-01-10T01:36:17;107.93;;;100.27;;
9208;SDS011;4639;48.862;9.188;2024-01-10T01:38:43;111.63;;;103.50;;
9208;SDS011;4639;48.862;9.188;2024-01-10T01:41:09;101.77;;;94.77;;
9208;SDS011;4639;48.862;9.188;2024-01-10T01:43:35;112.57;;;105.03;;
9208;SDS011;4639;48.862;9.188;2024-01-10T01:46:00;107.03;;;99.67;;
9208;SDS011;4639;48.862;9.188;2024-01-10T01:48:27;105.87;;;98.83;;
9208;SDS011;4639;48.862;9.188;2024-01-10T01:50:57;101.37;;;94.33;;
9208;SDS011;4639;48.862;9.188;2024-01-10T01:53:25;109.97;;;102.27;;
9208;SDS011;4639;48.862;9.188;2024-01-10T01:55:51;107.07;;;100.00;;
9208;SDS011;4639;48.862;9.188;2024-01-10T01:58:18;116.50;;;108.80;;
9208;SDS011;4639;48.862;9.188;2024-01-10T02:00:45;114.70;;;106.57;;
9208;SDS011;4639;48.862;9.188;2024-01-10T02:03:11;117.40;;;109.63;;
9208;SDS011;4639;48.862;9.188;2024-01-10T02:05:37;109.50;;;101.93;;
9208;SDS011;4639;48.862;9.188;2024-01-10T02:08:02;116.67;;;108.90;;
9208;SDS011;4639;48.862;9.188;2024-01-10T02:10:28;114.07;;;106.23;;
9208;SDS011;4639;48.862;9.188;2024-01-10T02:12:54;106.47;;;99.40;;
9208;SDS011;4639;48.862;9.188;2024-01-10T02:15:20;113.67;;;106.07;;
9208;SDS011;4639;48.862;9.188;2024-01-10T02:17:46;108.50;;;101.07;;
9208;SDS011;4639;48.862;9.188;2024-01-10T02:20:12;116.43;;;108.50;;
9208;SDS011;4639;48.862;9.188;2024-01-10T02:22:38;110.97;;;103.40;;
9208;SDS011;4639;48.862;9.188;2024-01-10T02:25:05;119.37;;;111.43;;
9208;SDS011;4639;48.862;9.188;2024-01-10T02:27:38;112.10;;;104.13;;
9208;SDS011;4639;48.862;9.188;2024-01-10T02:30:05;111.50;;;104.00;;
9208;SDS011;4639;48.862;9.188;2024-01-10T02:32:34;111.13;;;103.30;;
9208;SDS011;4639;48.862;9.188;2024-01-10T02:34:59;106.30;;;98.97;;
9208;SDS011;4639;48.862;9.188;2024-01-10T02:37:25;100.90;;;93.83;;
9208;SDS011;4639;48.862;9.188;2024-01-10T02:39:51;106.97;;;99.67;;
9208;SDS011;4639;48.862;9.188;2024-01-10T02:42:17;104.07;;;96.90;;
9208;SDS011;4639;48.862;9.188;2024-01-10T02:44:42;93.13;;;86.30;;
9208;SDS011;4639;48.862;9.188;2024-01-10T02:47:08;97.07;;;90.27;;
9208;SDS011;4639;48.862;9.188;2024-01-10T02:49:35;92.70;;;86.23;;
9208;SDS011;4639;48.862;9.188;2024-01-10T02:52:00;98.67;;;91.77;;
9208;SDS011;4639;48.862;9.188;2024-01-10T02:54:26;90.20;;;83.53;;
9208;SDS011;4639;48.862;9.188;2024-01-10T02:56:52;97.80;;;90.97;;
9208;SDS011;4639;48.862;9.188;2024-01-10T02:59:17;86.90;;;80.40;;
9208;SDS011;4639;48.862;9.188;2024-01-10T03:01:43;88.67;;;82.37;;
9208;SDS011;4639;48.862;9.188;2024-01-10T03:04:08;88.77;;;82.27;;
9208;SDS011;4639;48.862;9.188;2024-01-10T03:06:34;94.23;;;87.53;;
9208;SDS011;4639;48.862;9.188;2024-01-10T03:09:00;97.60;;;90.87;;
9208;SDS011;4639;48.862;9.188;2024-01-10T03:11:26;101.47;;;94.73;;
9208;SDS011;4639;48.862;9.188;2024-01-10T03:13:53;91.27;;;84.87;;
9208;SDS011;4639;48.862;9.188;2024-01-10T03:16:29;87.23;;;80.77;;
9208;SDS011;4639;48.862;9.188;2024-01-10T03:18:55;94.37;;;87.67;;
9208;SDS011;4639;48.862;9.188;2024-01-10T03:21:21;99.77;;;92.63;;
9208;SDS011;4639;48.862;9.188;2024-01-10T03:23:49;87.03;;;80.93;;
9208;SDS011;4639;48.862;9.188;2024-01-10T03:26:22;94.03;;;87.43;;
9208;SDS011;4639;48.862;9.188;2024-01-10T03:28:48;93.77;;;87.07;;
9208;SDS011;4639;48.862;9.188;2024-01-10T03:31:13;88.00;;;81.30;;
9208;SDS011;4639;48.862;9.188;2024-01-10T03:33:39;76.70;;;70.90;;
9208;SDS011;4639;48.862;9.188;2024-01-10T03:36:05;80.00;;;74.20;;
9208;SDS011;4639;48.862;9.188;2024-01-10T03:38:32;82.07;;;76.07;;
9208;SDS011;4639;48.862;9.188;2024-01-10T03:40:57;78.37;;;72.33;;
9208;SDS011;4639;48.862;9.188;2024-01-10T03:43:23;85.37;;;79.27;;
9208;SDS011;4639;48.862;9.188;2024-01-10T03:45:48;75.23;;;69.70;;
9208;SDS011;4639;48.862;9.188;2024-01-10T03:48:14;79.33;;;73.67;;
9208;SDS011;4639;48.862;9.188;2024-01-10T03:50:40;96.27;;;89.47;;
9208;SDS011;4639;48.862;9.188;2024-01-10T03:53:05;83.33;;;77.00;;
9208;SDS011;4639;48.862;9.188;2024-01-10T03:55:31;86.97;;;80.33;;
9208;SDS011;4639;48.862;9.188;2024-01-10T03:57:57;77.93;;;72.27;;
9208;SDS011;4639;48.862;9.188;2024-01-10T04:00:22;79.77;;;73.80;;
9208;SDS011;4639;48.862;9.188;2024-01-10T04:02:48;98.57;;;91.20;;
9208;SDS011;4639;48.862;9.188;2024-01-10T04:05:13;78.27;;;72.53;;
9208;SDS011;4639;48.862;9.188;2024-01-10T04:07:40;96.63;;;89.93;;
9208;SDS011;4639;48.862;9.188;2024-01-10T04:10:09;75.47;;;70.07;;
9208;SDS011;4639;48.862;9.188;2024-01-10T04:12:38;80.43;;;74.63;;
9208;SDS011;4639;48.862;9.188;2024-01-10T04:15:07;83.03;;;77.13;;
9208;SDS011;4639;48.862;9.188;2024-01-10T04:17:33;82.57;;;76.57;;
9208;SDS011;4639;48.862;9.188;2024-01-10T04:19:59;92.93;;;86.50;;
9208;SDS011;4639;48.862;9.188;2024-01-10T04:22:25;87.40;;;80.90;;
9208;SDS011;4639;48.862;9.188;2024-01-10T04:24:50;90.83;;;84.27;;
9208;SDS011;4639;48.862;9.188;2024-01-10T04:27:16;88.53;;;82.13;;
9208;SDS011;4639;48.862;9.188;2024-01-10T04:29:43;98.73;;;91.73;;
9208;SDS011;4639;48.862;9.188;2024-01-10T04:32:09;91.73;;;85.00;;
9208;SDS011;4639;48.862;9.188;2024-01-10T04:34:34;94.67;;;88.13;;
9208;SDS011;4639;48.862;9.188;2024-01-10T04:37:00;94.33;;;87.67;;
9208;SDS011;4639;48.862;9.188;2024-01-10T04:39:25;91.60;;;85.03;;
9208;SDS011;4639;48.862;9.188;2024-01-10T04:41:51;100.53;;;93.43;;
9208;SDS011;4639;48.862;9.188;2024-01-10T04:44:17;98.30;;;91.43;;
9208;SDS011;4639;48.862;9.188;2024-01-10T04:46:42;90.90;;;84.37;;
9208;SDS011;4639;48.862;9.188;2024-01-10T04:49:08;82.83;;;76.87;;
9208;SDS011;4639;48.862;9.188;2024-01-10T04:51:34;90.07;;;83.53;;
9208;SDS011;4639;48.862;9.188;2024-01-10T04:54:00;98.03;;;91.23;;
9208;SDS011;4639;48.862;9.188;2024-01-10T04:56:25;87.70;;;81.23;;
9208;SDS011;4639;48.862;9.188;2024-01-10T04:58:51;85.10;;;79.10;;
9208;SDS011;4639;48.862;9.188;2024-01-10T05:01:17;100.70;;;93.60;;
9208;SDS011;4639;48.862;9.188;2024-01-10T05:03:43;81.17;;;75.03;;
9208;SDS011;4639;48.862;9.188;2024-01-10T05:06:08;85.70;;;79.70;;
9208;SDS011;4639;48.862;9.188;2024-01-10T05:08:34;77.07;;;71.60;;
9208;SDS011;4639;48.862;9.188;2024-01-10T05:11:00;89.67;;;83.53;;
9208;SDS011;4639;48.862;9.188;2024-01-10T05:13:25;94.53;;;87.93;;
9208;SDS011;4639;48.862;9.188;2024-01-10T05:15:51;91.97;;;85.43;;
9208;SDS011;4639;48.862;9.188;2024-01-10T05:18:18;87.07;;;80.87;;
9208;SDS011;4639;48.862;9.188;2024-01-10T05:20:44;87.20;;;80.93;;
9208;SDS011;4639;48.862;9.188;2024-01-10T05:23:09;80.77;;;74.80;;
9208;SDS011;4639;48.862;9.188;2024-01-10T05:25:35;93.70;;;86.83;;
9208;SDS011;4639;48.862;9.188;2024-01-10T05:28:01;81.83;;;75.97;;
9208;SDS011;4639;48.862;9.188;2024-01-10T05:30:27;85.10;;;78.77;;
9208;SDS011;4639;48.862;9.188;2024-01-10T05:32:52;80.17;;;74.30;;
9208;SDS011;4639;48.862;9.188;2024-01-10T05:35:18;70.30;;;65.03;;
9208;SDS011;4639;48.862;9.188;2024-01-10T05:37:43;78.73;;;72.73;;
9208;SDS011;4639;48.862;9.188;2024-01-10T05:40:09;75.63;;;70.03;;
9208;SDS011;4639;48.862;9.188;2024-01-10T05:42:35;78.97;;;73.13;;
9208;SDS011;4639;48.862;9.188;2024-01-10T05:45:02;75.63;;;70.07;;
9208;SDS011;4639;48.862;9.188;2024-01-10T05:47:30;83.77;;;77.67;;
9208;SDS011;4639;48.862;9.188;2024-01-10T05:49:56;86.83;;;80.33;;
9208;SDS011;4639;48.862;9.188;2024-01-10T05:52:22;99.90;;;92.80;;
9208;SDS011;4639;48.862;9.188;2024-01-10T05:54:47;79.97;;;74.10;;
9208;SDS011;4639;48.862;9.188;2024-01-10T05:57:14;90.67;;;84.03;;
9208;SDS011;4639;48.862;9.188;2024-01-10T05:59:40;83.03;;;76.87;;
9208;SDS011;4639;48.862;9.188;2024-01-10T06:02:05;81.23;;;75.03;;
9208;SDS011;4639;48.862;9.188;2024-01-10T06:04:31;79.13;;;73.33;;
9208;SDS011;4639;48.862;9.188;2024-01-10T06:06:57;75.43;;;69.97;;
9208;SDS011;4639;48.862;9.188;2024-01-10T06:09:24;80.63;;;74.60;;
9208;SDS011;4639;48.862;9.188;2024-01-10T06:11:49;75.97;;;70.47;;
9208;SDS011;4639;48.862;9.188;2024-01-10T06:14:15;78.23;;;72.27;;
9208;SDS011;4639;48.862;9.188;2024-01-10T06:16:41;70.77;;;65.50;;
9208;SDS011;4639;48.862;9.188;2024-01-10T06:19:06;78.93;;;73.03;;
9208;SDS011;4639;48.862;9.188;2024-01-10T06:21:32;70.93;;;65.43;;
9208;SDS011;4639;48.862;9.188;2024-01-10T06:23:57;73.93;;;68.20;;
9208;SDS011;4639;48.862;9.188;2024-01-10T06:26:23;75.30;;;69.57;;
9208;SDS011;4639;48.862;9.188;2024-01-10T06:28:49;73.70;;;68.20;;
9208;SDS011;4639;48.862;9.188;2024-01-10T06:31:17;87.57;;;81.07;;
9208;SDS011;4639;48.862;9.188;2024-01-10T06:33:43;74.23;;;68.73;;
9208;SDS011;4639;48.862;9.188;2024-01-10T06:36:08;74.00;;;68.40;;
9208;SDS011;4639;48.862;9.188;2024-01-10T06:38:34;77.47;;;71.60;;
9208;SDS011;4639;48.862;9.188;2024-01-10T06:40:59;75.37;;;69.77;;
9208;SDS011;4639;48.862;9.188;2024-01-10T06:43:25;77.33;;;71.60;;
9208;SDS011;4639;48.862;9.188;2024-01-10T06:45:50;73.80;;;68.17;;
9208;SDS011;4639;48.862;9.188;2024-01-10T06:48:16;74.97;;;69.27;;
9208;SDS011;4639;48.862;9.188;2024-01-10T06:50:43;89.57;;;82.83;;
9208;SDS011;4639;48.862;9.188;2024-01-10T06:53:10;82.27;;;76.13;;
9208;SDS011;4639;48.862;9.188;2024-01-10T06:55:35;86.53;;;80.33;;
9208;SDS011;4639;48.862;9.188;2024-01-10T06:58:01;85.83;;;79.47;;
9208;SDS011;4639;48.862;9.188;2024-01-10T07:00:27;83.90;;;77.77;;
9208;SDS011;4639;48.862;9.188;2024-01-10T07:02:53;94.17;;;87.10;;
9208;SDS011;4639;48.862;9.188;2024-01-10T07:05:19;87.87;;;81.47;;
9208;SDS011;4639;48.862;9.188;2024-01-10T07:07:44;83.73;;;77.63;;
9208;SDS011;4639;48.862;9.188;2024-01-10T07:10:10;81.13;;;74.73;;
9208;SDS011;4639;48.862;9.188;2024-01-10T07:12:36;81.63;;;75.50;;
9208;SDS011;4639;48.862;9.188;2024-01-10T07:15:02;86.00;;;79.37;;
9208;SDS011;4639;48.862;9.188;2024-01-10T07:17:28;84.10;;;77.97;;
9208;SDS011;4639;48.862;9.188;2024-01-10T07:19:53;85.13;;;78.73;;
9208;SDS011;4639;48.862;9.188;2024-01-10T07:22:21;78.10;;;72.40;;
9208;SDS011;4639;48.862;9.188;2024-01-10T07:24:47;78.27;;;71.97;;
9208;SDS011;4639;48.862;9.188;2024-01-10T07:27:13;71.20;;;65.93;;
9208;SDS011;4639;48.862;9.188;2024-01-10T07:29:39;64.53;;;59.40;;
9208;SDS011;4639;48.862;9.188;2024-01-10T07:32:06;60.53;;;55.47;;
9208;SDS011;4639;48.862;9.188;2024-01-10T07:34:36;64.30;;;59.07;;
9208;SDS011;4639;48.862;9.188;2024-01-10T07:37:02;72.60;;;66.30;;
9208;SDS011;4639;48.862;9.188;2024-01-10T07:39:28;57.50;;;52.73;;
9208;SDS011;4639;48.862;9.188;2024-01-10T07:41:55;73.37;;;67.57;;
9208;SDS011;4639;48.862;9.188;2024-01-10T07:44:20;74.60;;;68.73;;
9208;SDS011;4639;48.862;9.188;2024-01-10T07:46:46;74.13;;;68.33;;
9208;SDS011;4639;48.862;9.188;2024-01-10T07:49:12;67.37;;;62.30;;
9208;SDS011;4639;48.862;9.188;2024-01-10T07:51:37;67.20;;;61.70;;
9208;SDS011;4639;48.862;9.188;2024-01-10T07:54:03;69.93;;;64.37;;
9208;SDS011;4639;48.862;9.188;2024-01-10T07:56:29;71.90;;;66.33;;
9208;SDS011;4639;48.862;9.188;2024-01-10T07:58:55;73.73;;;67.87;;
9208;SDS011;4639;48.862;9.188;2024-01-10T08:01:21;82.87;;;76.40;;
9208;SDS011;4639;48.862;9.188;2024-01-10T08:03:46;80.63;;;74.30;;
9208;SDS011;4639;48.862;9.188;2024-01-10T08:06:12;86.73;;;79.23;;
9208;SDS011;4639;48.862;9.188;2024-01-10T08:08:38;84.70;;;78.03;;
9208;SDS011;4639;48.862;9.188;2024-01-10T08:11:04;81.60;;;75.07;;
9208;SDS011;4639;48.862;9.188;2024-01-10T08:13:30;74.37;;;68.47;;
9208;SDS011;4639;48.862;9.188;2024-01-10T08:15:56;76.90;;;70.70;;
9208;SDS011;4639;48.862;9.188;2024-01-10T08:18:22;77.83;;;71.83;;
9208;SDS011;4639;48.862;9.188;2024-01-10T08:20:48;81.63;;;75.40;;
9208;SDS011;4639;48.862;9.188;2024-01-10T08:23:13;81.83;;;75.53;;
9208;SDS011;4639;48.862;9.188;2024-01-10T08:25:39;78.37;;;71.87;;
9208;SDS011;4639;48.862;9.188;2024-01-10T08:28:05;78.10;;;72.30;;
9208;SDS011;4639;48.862;9.188;2024-01-10T08:30:31;83.93;;;77.63;;
9208;SDS011;4639;48.862;9.188;2024-01-10T08:32:57;84.83;;;78.37;;
9208;SDS011;4639;48.862;9.188;2024-01-10T08:35:24;87.10;;;80.60;;
9208;SDS011;4639;48.862;9.188;2024-01-10T08:37:50;85.13;;;78.67;;
9208;SDS011;4639;48.862;9.188;2024-01-10T08:40:15;85.10;;;78.60;;
9208;SDS011;4639;48.862;9.188;2024-01-10T08:42:42;75.80;;;69.57;;
9208;SDS011;4639;48.862;9.188;2024-01-10T08:45:08;84.43;;;78.13;;
9208;SDS011;4639;48.862;9.188;2024-01-10T08:47:36;145.23;;;134.50;;
9208;SDS011;4639;48.862;9.188;2024-01-10T08:50:05;94.60;;;87.70;;
9208;SDS011;4639;48.862;9.188;2024-01-10T08:52:34;116.70;;;108.50;;
9208;SDS011;4639;48.862;9.188;2024-01-10T08:55:02;109.40;;;101.37;;
9208;SDS011;4639;48.862;9.188;2024-01-10T08:57:29;115.93;;;108.17;;
9208;SDS011;4639;48.862;9.188;2024-01-10T08:59:55;124.03;;;115.47;;
9208;SDS011;4639;48.862;9.188;2024-01-10T09:02:20;95.63;;;88.53;;
9208;SDS011;4639;48.862;9.188;2024-01-10T09:04:48;118.63;;;110.18;;
9208;SDS011;4639;48.862;9.188;2024-01-10T09:07:14;170.52;;;158.30;;
9208;SDS011;4639;48.862;9.188;2024-01-10T09:09:39;138.45;;;129.00;;
9208;SDS011;4639;48.862;9.188;2024-01-10T09:12:05;136.15;;;126.70;;
9208;SDS011;4639;48.862;9.188;2024-01-10T09:14:31;137.10;;;126.95;;
9208;SDS011;4639;48.862;9.188;2024-01-10T09:16:56;115.35;;;106.82;;
9208;SDS011;4639;48.862;9.188;2024-01-10T09:19:23;113.43;;;105.15;;
9208;SDS011;4639;48.862;9.188;2024-01-10T09:21:49;107.80;;;100.05;;
9208;SDS011;4639;48.862;9.188;2024-01-10T09:24:16;107.80;;;100.25;;
9208;SDS011;4639;48.862;9.188;2024-01-10T09:26:43;103.00;;;95.70;;
9208;SDS011;4639;48.862;9.188;2024-01-10T09:29:09;92.35;;;85.63;;
9208;SDS011;4639;48.862;9.188;2024-01-10T09:31:34;101.77;;;94.13;;
9208;SDS011;4639;48.862;9.188;2024-01-10T09:34:00;99.18;;;91.30;;
9208;SDS011;4639;48.862;9.188;2024-01-10T09:36:25;107.95;;;100.22;;
9208;SDS011;4639;48.862;9.188;2024-01-10T09:38:51;105.07;;;97.47;;
9208;SDS011;4639;48.862;9.188;2024-01-10T09:41:17;112.28;;;104.43;;
9208;SDS011;4639;48.862;9.188;2024-01-10T09:43:43;152.10;;;142.13;;
9208;SDS011;4639;48.862;9.188;2024-01-10T09:46:09;139.63;;;129.77;;
9208;SDS011;4639;48.862;9.188;2024-01-10T09:48:35;157.43;;;146.30;;
9208;SDS011;4639;48.862;9.188;2024-01-10T09:51:01;143.38;;;133.63;;
9208;SDS011;4639;48.862;9.188;2024-01-10T09:53:27;154.00;;;142.95;;
9208;SDS011;4639;48.862;9.188;2024-01-10T09:55:54;146.95;;;136.77;;
9208;SDS011;4639;48.862;9.188;2024-01-10T09:58:25;136.48;;;126.63;;
9208;SDS011;4639;48.862;9.188;2024-01-10T10:00:51;128.55;;;119.30;;
9208;SDS011;4639;48.862;9.188;2024-01-10T10:03:17;154.07;;;142.18;;
9208;SDS011;4639;48.862;9.188;2024-01-10T10:05:44;155.50;;;144.15;;
9208;SDS011;4639;48.862;9.188;2024-01-10T10:08:11;215.60;;;199.82;;
9208;SDS011;4639;48.862;9.188;2024-01-10T10:10:40;175.45;;;163.60;;
9208;SDS011;4639;48.862;9.188;2024-01-10T10:13:10;134.18;;;125.05;;
9208;SDS011;4639;48.862;9.188;2024-01-10T10:15:52;161.73;;;150.38;;
9208;SDS011;4639;48.862;9.188;2024-01-10T10:18:27;151.80;;;141.60;;
9208;SDS011;4639;48.862;9.188;2024-01-10T10:21:09;132.95;;;123.30;;
9208;SDS011;4639;48.862;9.188;2024-01-10T10:23:42;80.57;;;74.38;;
9208;SDS011;4639;48.862;9.188;2024-01-10T10:26:22;62.47;;;57.10;;
9208;SDS011;4639;48.862;9.188;2024-01-10T10:28:49;72.40;;;66.40;;
9208;SDS011;4639;48.862;9.188;2024-01-10T10:31:17;57.22;;;52.03;;
9208;SDS011;4639;48.862;9.188;2024-01-10T10:33:44;70.35;;;64.47;;
9208;SDS011;4639;48.862;9.188;2024-01-10T10:36:10;90.70;;;83.95;;
9208;SDS011;4639;48.862;9.188;2024-01-10T10:38:36;99.20;;;91.95;;
9208;SDS011;4639;48.862;9.188;2024-01-10T10:41:04;121.07;;;112.00;;
9208;SDS011;4639;48.862;9.188;2024-01-10T10:43:34;137.02;;;127.30;;
9208;SDS011;4639;48.862;9.188;2024-01-10T10:46:01;100.93;;;93.45;;
9208;SDS011;4639;48.862;9.188;2024-01-10T10:48:27;76.55;;;70.22;;
9208;SDS011;4639;48.862;9.188;2024-01-10T10:54:01;77.97;;;71.85;;
9208;SDS011;4639;48.862;9.188;2024-01-10T10:56:29;83.55;;;76.97;;
9208;SDS011;4639;48.862;9.188;2024-01-10T10:58:58;89.13;;;81.97;;
9208;SDS011;4639;48.862;9.188;2024-01-10T11:01:26;111.38;;;102.65;;
9208;SDS011;4639;48.862;9.188;2024-01-10T11:03:52;97.95;;;90.35;;
9208;SDS011;4639;48.862;9.188;2024-01-10T11:06:19;123.05;;;113.43;;
9208;SDS011;4639;48.862;9.188;2024-01-10T11:21:49;173.73;;;160.43;;
9208;SDS011;4639;48.862;9.188;2024-01-10T11:24:18;159.48;;;147.88;;
9208;SDS011;4639;48.862;9.188;2024-01-10T11:26:45;155.60;;;144.02;;
9208;SDS011;4639;48.862;9.188;2024-01-10T11:29:11;160.52;;;148.30;;
9208;SDS011;4639;48.862;9.188;2024-01-10T11:31:37;157.82;;;146.13;;
9208;SDS011;4639;48.862;9.188;2024-01-10T11:34:04;162.32;;;149.85;;
9208;SDS011;4639;48.862;9.188;2024-01-10T11:36:30;175.85;;;163.00;;
9208;SDS011;4639;48.862;9.188;2024-01-10T11:39:02;146.80;;;135.90;;
9208;SDS011;4639;48.862;9.188;2024-01-10T11:41:30;99.72;;;92.43;;
9208;SDS011;4639;48.862;9.188;2024-01-10T11:46:46;86.78;;;80.03;;
9208;SDS011;4639;48.862;9.188;2024-01-10T11:49:14;102.57;;;94.65;;
9208;SDS011;4639;48.862;9.188;2024-01-10T11:51:44;88.43;;;81.47;;
9208;SDS011;4639;48.862;9.188;2024-01-10T11:54:11;92.13;;;84.95;;
9208;SDS011;4639;48.862;9.188;2024-01-10T11:59:15;111.90;;;103.40;;
9208;SDS011;4639;48.862;9.188;2024-01-10T12:01:41;144.02;;;133.23;;
9208;SDS011;4639;48.862;9.188;2024-01-10T12:04:07;168.68;;;155.65;;
9208;SDS011;4639;48.862;9.188;2024-01-10T12:06:34;125.03;;;115.93;;
9208;SDS011;4639;48.862;9.188;2024-01-10T12:09:01;97.60;;;89.80;;
9208;SDS011;4639;48.862;9.188;2024-01-10T12:11:33;128.23;;;118.85;;
9208;SDS011;4639;48.862;9.188;2024-01-10T12:13:59;123.28;;;114.15;;
9208;SDS011;4639;48.862;9.188;2024-01-10T12:16:27;126.47;;;117.03;;
9208;SDS011;4639;48.862;9.188;2024-01-10T12:18:52;150.63;;;139.15;;
9208;SDS011;4639;48.862;9.188;2024-01-10T12:21:18;159.35;;;147.43;;
9208;SDS011;4639;48.862;9.188;2024-01-10T12:23:43;146.25;;;135.25;;
9208;SDS011;4639;48.862;9.188;2024-01-10T12:26:10;134.00;;;124.15;;
9208;SDS011;4639;48.862;9.188;2024-01-10T12:28:39;109.55;;;101.38;;
9208;SDS011;4639;48.862;9.188;2024-01-10T12:31:07;115.20;;;106.45;;
9208;SDS011;4639;48.862;9.188;2024-01-10T12:33:33;137.07;;;126.72;;
9208;SDS011;4639;48.862;9.188;2024-01-10T12:38:32;125.80;;;115.97;;
9208;SDS011;4639;48.862;9.188;2024-01-10T12:40:59;123.13;;;113.43;;
9208;SDS011;4639;48.862;9.188;2024-01-10T12:43:25;133.85;;;123.35;;
9208;SDS011;4639;48.862;9.188;2024-01-10T12:46:12;121.50;;;111.72;;
9208;SDS011;4639;48.862;9.188;2024-01-10T12:48:38;116.97;;;107.75;;
9208;SDS011;4639;48.862;9.188;2024-01-10T12:51:09;134.02;;;124.05;;
9208;SDS011;4639;48.862;9.188;2024-01-10T12:56:03;147.85;;;136.00;;
9208;SDS011;4639;48.862;9.188;2024-01-10T12:58:29;157.05;;;145.43;;
9208;SDS011;4639;48.862;9.188;2024-01-10T13:00:55;134.18;;;123.75;;
9208;SDS011;4639;48.862;9.188;2024-01-10T13:03:21;113.13;;;104.35;;
9208;SDS011;4639;48.862;9.188;2024-01-10T13:05:48;146.63;;;135.63;;
9208;SDS011;4639;48.862;9.188;2024-01-10T13:08:14;137.45;;;127.15;;
9208;SDS011;4639;48.862;9.188;2024-01-10T13:10:40;133.00;;;122.72;;
9208;SDS011;4639;48.862;9.188;2024-01-10T13:13:07;131.45;;;120.65;;
9208;SDS011;4639;48.862;9.188;2024-01-10T13:15:32;142.70;;;131.25;;
9208;SDS011;4639;48.862;9.188;2024-01-10T13:17:58;144.40;;;133.55;;
9208;SDS011;4639;48.862;9.188;2024-01-10T13:20:25;136.57;;;126.32;;
9208;SDS011;4639;48.862;9.188;2024-01-10T13:22:51;151.57;;;140.63;;
9208;SDS011;4639;48.862;9.188;2024-01-10T13:25:16;137.60;;;126.90;;
9208;SDS011;4639;48.862;9.188;2024-01-10T13:27:42;127.13;;;117.43;;
9208;SDS011;4639;48.862;9.188;2024-01-10T13:30:08;140.40;;;129.60;;
9208;SDS011;4639;48.862;9.188;2024-01-10T13:32:37;139.73;;;129.23;;
9208;SDS011;4639;48.862;9.188;2024-01-10T13:35:03;128.23;;;118.25;;
9208;SDS011;4639;48.862;9.188;2024-01-10T13:37:29;92.45;;;84.57;;
9208;SDS011;4639;48.862;9.188;2024-01-10T13:39:56;107.65;;;99.10;;
9208;SDS011;4639;48.862;9.188;2024-01-10T13:42:22;115.18;;;106.55;;
9208;SDS011;4639;48.862;9.188;2024-01-10T13:44:48;89.03;;;82.15;;
9208;SDS011;4639;48.862;9.188;2024-01-10T13:47:14;131.73;;;121.53;;
9208;SDS011;4639;48.862;9.188;2024-01-10T13:49:40;138.70;;;128.30;;
9208;SDS011;4639;48.862;9.188;2024-01-10T13:52:06;148.38;;;137.48;;
9208;SDS011;4639;48.862;9.188;2024-01-10T13:54:32;160.40;;;149.45;;
9208;SDS011;4639;48.862;9.188;2024-01-10T13:56:57;161.60;;;150.02;;
9208;SDS011;4639;48.862;9.188;2024-01-10T13:59:23;146.02;;;135.40;;
9208;SDS011;4639;48.862;9.188;2024-01-10T14:01:49;163.73;;;152.25;;
9208;SDS011;4639;48.862;9.188;2024-01-10T14:04:14;158.82;;;146.77;;
9208;SDS011;4639;48.862;9.188;2024-01-10T14:06:40;158.48;;;147.32;;
9208;SDS011;4639;48.862;9.188;2024-01-10T14:09:05;162.60;;;151.18;;
9208;SDS011;4639;48.862;9.188;2024-01-10T14:11:34;153.73;;;142.73;;
9208;SDS011;4639;48.862;9.188;2024-01-10T14:14:00;142.73;;;132.73;;
9208;SDS011;4639;48.862;9.188;2024-01-10T14:16:26;152.32;;;141.65;;
9208;SDS011;4639;48.862;9.188;2024-01-10T14:18:53;142.55;;;132.13;;
9208;SDS011;4639;48.862;9.188;2024-01-10T14:21:21;137.63;;;127.65;;
9208;SDS011;4639;48.862;9.188;2024-01-10T14:23:47;141.35;;;130.68;;
9208;SDS011;4639;48.862;9.188;2024-01-10T14:26:13;136.13;;;126.20;;
9208;SDS011;4639;48.862;9.188;2024-01-10T14:28:40;119.03;;;110.30;;
9208;SDS011;4639;48.862;9.188;2024-01-10T14:31:06;134.57;;;124.57;;
9208;SDS011;4639;48.862;9.188;2024-01-10T14:33:31;116.57;;;108.25;;
9208;SDS011;4639;48.862;9.188;2024-01-10T14:35:57;129.32;;;119.72;;
9208;SDS011;4639;48.862;9.188;2024-01-10T14:38:25;115.75;;;106.70;;
9208;SDS011;4639;48.862;9.188;2024-01-10T14:40:50;116.25;;;107.00;;
9208;SDS011;4639;48.862;9.188;2024-01-10T14:43:16;116.70;;;107.43;;
9208;SDS011;4639;48.862;9.188;2024-01-10T14:45:42;112.10;;;103.28;;
9208;SDS011;4639;48.862;9.188;2024-01-10T14:48:08;110.07;;;101.30;;
9208;SDS011;4639;48.862;9.188;2024-01-10T14:50:34;102.25;;;94.35;;
9208;SDS011;4639;48.862;9.188;2024-01-10T14:53:01;101.35;;;93.15;;
9208;SDS011;4639;48.862;9.188;2024-01-10T14:55:27;106.18;;;97.68;;
9208;SDS011;4639;48.862;9.188;2024-01-10T14:57:53;105.07;;;96.65;;